sensor_id;sensor_type;location;lat;lon;timestamp;pressure;altitude;pressure_sealevel;temperature;humidity
19761;BME280;10039;42.632;23.408;2023-03-22T00:00:24;94634.66;;;11.04;77.47
19761;BME280;10039;42.632;23.408;2023-03-22T00:02:52;94617.41;;;10.93;78.06
19761;BME280;10039;42.632;23.408;2023-03-22T00:05:18;94657.91;;;11.19;77.64
19761;BME280;10039;42.632;23.408;2023-03-22T00:07:43;94630.16;;;11.01;77.82
19761;BME280;10039;42.632;23.408;2023-03-22T00:10:09;94644.72;;;11.13;77.51
19761;BME280;10039;42.632;23.408;2023-03-22T00:12:35;94643.63;;;10.98;77.33
19761;BME280;10039;42.632;23.408;2023-03-22T00:15:01;94619.94;;;10.84;77.93
19761;BME280;10039;42.632;23.408;2023-03-22T00:17:27;94648.91;;;11.13;77.62
19761;BME280;10039;42.632;23.408;2023-03-22T00:19:53;94612.91;;;10.90;77.89
19761;BME280;10039;42.632;23.408;2023-03-22T00:22:19;94610.25;;;10.90;76.83
19761;BME280;10039;42.632;23.408;2023-03-22T00:24:44;94651.06;;;11.18;76.64
19761;BME280;10039;42.632;23.408;2023-03-22T00:27:10;94638.84;;;11.05;77.55
19761;BME280;10039;42.632;23.408;2023-03-22T00:29:37;94640.78;;;10.89;78.50
19761;BME280;10039;42.632;23.408;2023-03-22T00:32:02;94616.44;;;10.71;78.85
19761;BME280;10039;42.632;23.408;2023-03-22T00:34:32;94639.94;;;10.92;79.66
19761;BME280;10039;42.632;23.408;2023-03-22T00:36:58;94642.63;;;10.92;80.05
19761;BME280;10039;42.632;23.408;2023-03-22T00:39:24;94641.78;;;10.95;79.19
19761;BME280;10039;42.632;23.408;2023-03-22T00:41:51;94601.69;;;10.82;78.31
19761;BME280;10039;42.632;23.408;2023-03-22T00:44:16;94634.09;;;11.25;77.84
19761;BME280;10039;42.632;23.408;2023-03-22T00:46:42;94627.13;;;11.15;76.85
19761;BME280;10039;42.632;23.408;2023-03-22T00:49:08;94633.56;;;11.30;76.44
19761;BME280;10039;42.632;23.408;2023-03-22T00:51:33;94617.78;;;11.35;75.99
19761;BME280;10039;42.632;23.408;2023-03-22T00:53:59;94607.50;;;11.21;75.66
19761;BME280;10039;42.632;23.408;2023-03-22T00:56:25;94603.97;;;11.24;75.60
19761;BME280;10039;42.632;23.408;2023-03-22T00:58:53;94645.13;;;11.39;75.77
19761;BME280;10039;42.632;23.408;2023-03-22T01:01:19;94614.94;;;11.14;76.42
19761;BME280;10039;42.632;23.408;2023-03-22T01:03:44;94611.81;;;11.03;76.04
19761;BME280;10039;42.632;23.408;2023-03-22T01:06:14;94638.56;;;11.15;77.26
19761;BME280;10039;42.632;23.408;2023-03-22T01:08:40;94625.66;;;10.98;77.17
19761;BME280;10039;42.632;23.408;2023-03-22T01:11:07;94591.41;;;10.81;77.38
19761;BME280;10039;42.632;23.408;2023-03-22T01:13:33;94582.00;;;10.76;77.05
19761;BME280;10039;42.632;23.408;2023-03-22T01:15:59;94624.81;;;11.01;77.22
19761;BME280;10039;42.632;23.408;2023-03-22T01:18:24;94591.09;;;10.79;77.65
19761;BME280;10039;42.632;23.408;2023-03-22T01:20:50;94596.41;;;10.79;77.19
19761;BME280;10039;42.632;23.408;2023-03-22T01:23:16;94575.25;;;10.72;77.15
19761;BME280;10039;42.632;23.408;2023-03-22T01:25:42;94588.09;;;10.77;78.27
19761;BME280;10039;42.632;23.408;2023-03-22T01:28:07;94609.09;;;10.91;78.17
19761;BME280;10039;42.632;23.408;2023-03-22T01:30:34;94590.25;;;10.82;78.34
19761;BME280;10039;42.632;23.408;2023-03-22T01:32:59;94608.97;;;10.94;78.41
19761;BME280;10039;42.632;23.408;2023-03-22T01:35:25;94579.00;;;10.74;77.88
19761;BME280;10039;42.632;23.408;2023-03-22T01:37:51;94596.75;;;10.81;77.38
19761;BME280;10039;42.632;23.408;2023-03-22T01:40:16;94617.03;;;11.07;77.39
19761;BME280;10039;42.632;23.408;2023-03-22T01:42:42;94576.00;;;10.72;77.01
19761;BME280;10039;42.632;23.408;2023-03-22T01:47:44;94604.09;;;10.77;77.48
19761;BME280;10039;42.632;23.408;2023-03-22T01:50:13;94603.50;;;10.85;77.33
19761;BME280;10039;42.632;23.408;2023-03-22T01:52:39;94602.59;;;10.76;77.93
19761;BME280;10039;42.632;23.408;2023-03-22T01:55:06;94596.53;;;10.75;77.61
19761;BME280;10039;42.632;23.408;2023-03-22T01:57:34;94591.25;;;10.72;77.80
19761;BME280;10039;42.632;23.408;2023-03-22T02:00:08;94599.41;;;10.97;77.13
19761;BME280;10039;42.632;23.408;2023-03-22T02:02:35;94583.56;;;10.90;76.92
19761;BME280;10039;42.632;23.408;2023-03-22T02:05:01;94585.19;;;11.00;77.11
19761;BME280;10039;42.632;23.408;2023-03-22T02:07:28;94601.53;;;11.02;76.58
19761;BME280;10039;42.632;23.408;2023-03-22T02:09:56;94591.84;;;11.08;76.61
19761;BME280;10039;42.632;23.408;2023-03-22T02:15:23;94592.69;;;11.05;76.07
19761;BME280;10039;42.632;23.408;2023-03-22T02:21:44;94614.03;;;11.05;76.69
19761;BME280;10039;42.632;23.408;2023-03-22T02:24:12;94619.38;;;11.05;77.19
19761;BME280;10039;42.632;23.408;2023-03-22T02:27:00;94581.13;;;10.67;76.84
19761;BME280;10039;42.632;23.408;2023-03-22T02:29:52;94619.94;;;10.84;77.21
19761;BME280;10039;42.632;23.408;2023-03-22T02:41:03;94634.63;;;10.76;78.43
19761;BME280;10039;42.632;23.408;2023-03-22T02:49:15;94606.16;;;10.85;77.21
19761;BME280;10039;42.632;23.408;2023-03-22T02:51:47;94626.59;;;10.92;77.21
19761;BME280;10039;42.632;23.408;2023-03-22T02:54:22;94605.69;;;10.74;76.93
19761;BME280;10039;42.632;23.408;2023-03-22T02:56:56;94607.28;;;10.72;76.55
19761;BME280;10039;42.632;23.408;2023-03-22T02:59:28;94619.44;;;10.73;77.23
19761;BME280;10039;42.632;23.408;2023-03-22T03:01:57;94612.22;;;10.57;77.67
19761;BME280;10039;42.632;23.408;2023-03-22T03:04:27;94644.28;;;10.70;77.81
19761;BME280;10039;42.632;23.408;2023-03-22T03:06:58;94635.50;;;10.57;78.14
19761;BME280;10039;42.632;23.408;2023-03-22T03:09:27;94617.16;;;10.43;78.16
19761;BME280;10039;42.632;23.408;2023-03-22T03:11:53;94625.75;;;10.50;78.05
19761;BME280;10039;42.632;23.408;2023-03-22T03:14:30;94610.41;;;10.38;78.55
19761;BME280;10039;42.632;23.408;2023-03-22T03:17:29;94633.66;;;10.54;77.92
19761;BME280;10039;42.632;23.408;2023-03-22T03:20:13;94593.06;;;10.30;77.55
19761;BME280;10039;42.632;23.408;2023-03-22T03:26:08;94635.06;;;10.58;77.98
19761;BME280;10039;42.632;23.408;2023-03-22T03:28:48;94595.56;;;10.21;78.10
19761;BME280;10039;42.632;23.408;2023-03-22T03:34:05;94642.00;;;10.56;78.41
19761;BME280;10039;42.632;23.408;2023-03-22T03:36:34;94642.22;;;10.61;78.54
19761;BME280;10039;42.632;23.408;2023-03-22T03:39:04;94630.81;;;10.45;77.35
19761;BME280;10039;42.632;23.408;2023-03-22T03:41:32;94637.91;;;10.51;77.39
19761;BME280;10039;42.632;23.408;2023-03-22T03:43:59;94623.97;;;10.44;77.49
19761;BME280;10039;42.632;23.408;2023-03-22T03:46:25;94620.41;;;10.34;77.83
19761;BME280;10039;42.632;23.408;2023-03-22T03:48:54;94630.06;;;10.44;77.53
19761;BME280;10039;42.632;23.408;2023-03-22T03:51:21;94641.81;;;10.47;77.46
19761;BME280;10039;42.632;23.408;2023-03-22T03:53:47;94643.31;;;10.48;77.29
19761;BME280;10039;42.632;23.408;2023-03-22T03:56:13;94627.25;;;10.35;77.50
19761;BME280;10039;42.632;23.408;2023-03-22T03:58:39;94652.31;;;10.54;78.18
19761;BME280;10039;42.632;23.408;2023-03-22T04:01:05;94646.56;;;10.55;77.73
19761;BME280;10039;42.632;23.408;2023-03-22T04:03:31;94619.50;;;10.25;77.62
19761;BME280;10039;42.632;23.408;2023-03-22T04:05:56;94660.66;;;10.56;77.44
19761;BME280;10039;42.632;23.408;2023-03-22T04:08:24;94612.66;;;10.24;78.15
19761;BME280;10039;42.632;23.408;2023-03-22T04:10:51;94634.50;;;10.35;78.30
19761;BME280;10039;42.632;23.408;2023-03-22T04:13:17;94651.91;;;10.55;78.36
19761;BME280;10039;42.632;23.408;2023-03-22T04:15:46;94661.69;;;10.62;77.99
19761;BME280;10039;42.632;23.408;2023-03-22T04:18:11;94658.56;;;10.63;77.96
19761;BME280;10039;42.632;23.408;2023-03-22T04:20:37;94635.31;;;10.48;77.17
19761;BME280;10039;42.632;23.408;2023-03-22T04:23:06;94646.50;;;10.59;77.03
19761;BME280;10039;42.632;23.408;2023-03-22T04:25:36;94659.31;;;10.80;76.82
19761;BME280;10039;42.632;23.408;2023-03-22T04:28:02;94655.66;;;10.74;76.07
19761;BME280;10039;42.632;23.408;2023-03-22T04:30:29;94662.22;;;10.85;75.94
19761;BME280;10039;42.632;23.408;2023-03-22T04:32:55;94674.31;;;10.90;75.69
19761;BME280;10039;42.632;23.408;2023-03-22T04:35:21;94679.00;;;10.86;75.32
19761;BME280;10039;42.632;23.408;2023-03-22T04:37:46;94678.50;;;10.91;76.25
19761;BME280;10039;42.632;23.408;2023-03-22T04:40:14;94667.41;;;10.76;76.01
19761;BME280;10039;42.632;23.408;2023-03-22T04:42:45;94674.81;;;10.85;75.83
19761;BME280;10039;42.632;23.408;2023-03-22T04:45:12;94629.25;;;10.47;76.72
19761;BME280;10039;42.632;23.408;2023-03-22T04:47:38;94681.09;;;10.78;76.54
19761;BME280;10039;42.632;23.408;2023-03-22T04:50:05;94656.66;;;10.64;76.39
19761;BME280;10039;42.632;23.408;2023-03-22T04:52:31;94672.00;;;10.76;76.02
19761;BME280;10039;42.632;23.408;2023-03-22T04:54:56;94659.97;;;10.68;76.11
19761;BME280;10039;42.632;23.408;2023-03-22T04:57:22;94680.00;;;10.92;76.09
19761;BME280;10039;42.632;23.408;2023-03-22T04:59:49;94686.06;;;10.92;76.10
19761;BME280;10039;42.632;23.408;2023-03-22T05:02:15;94681.00;;;10.82;76.58
19761;BME280;10039;42.632;23.408;2023-03-22T05:04:41;94689.25;;;10.87;76.68
19761;BME280;10039;42.632;23.408;2023-03-22T05:07:06;94696.19;;;10.85;76.98
19761;BME280;10039;42.632;23.408;2023-03-22T05:09:32;94683.50;;;10.73;76.11
19761;BME280;10039;42.632;23.408;2023-03-22T05:11:58;94679.19;;;10.63;76.90
19761;BME280;10039;42.632;23.408;2023-03-22T05:14:26;94668.00;;;10.52;76.97
19761;BME280;10039;42.632;23.408;2023-03-22T05:16:52;94702.94;;;10.73;76.59
19761;BME280;10039;42.632;23.408;2023-03-22T05:19:18;94705.03;;;10.82;77.52
19761;BME280;10039;42.632;23.408;2023-03-22T05:21:47;94689.03;;;10.66;77.21
19761;BME280;10039;42.632;23.408;2023-03-22T05:24:12;94698.09;;;10.68;76.69
19761;BME280;10039;42.632;23.408;2023-03-22T05:26:38;94712.88;;;10.89;76.65
19761;BME280;10039;42.632;23.408;2023-03-22T05:29:08;94714.69;;;10.92;76.49
19761;BME280;10039;42.632;23.408;2023-03-22T05:31:35;94681.66;;;10.70;76.35
19761;BME280;10039;42.632;23.408;2023-03-22T05:34:01;94689.84;;;10.79;76.32
19761;BME280;10039;42.632;23.408;2023-03-22T05:36:27;94698.63;;;10.79;76.35
19761;BME280;10039;42.632;23.408;2023-03-22T05:38:54;94713.19;;;10.91;75.85
19761;BME280;10039;42.632;23.408;2023-03-22T05:41:21;94718.88;;;10.93;75.76
19761;BME280;10039;42.632;23.408;2023-03-22T05:43:47;94699.28;;;10.83;75.82
19761;BME280;10039;42.632;23.408;2023-03-22T05:46:12;94716.53;;;10.95;75.69
19761;BME280;10039;42.632;23.408;2023-03-22T05:48:39;94692.84;;;10.81;75.82
19761;BME280;10039;42.632;23.408;2023-03-22T05:51:07;94712.44;;;10.74;76.21
19761;BME280;10039;42.632;23.408;2023-03-22T05:53:33;94727.63;;;10.77;76.36
19761;BME280;10039;42.632;23.408;2023-03-22T05:55:58;94727.47;;;10.68;77.06
19761;BME280;10039;42.632;23.408;2023-03-22T05:58:27;94703.69;;;10.58;76.98
19761;BME280;10039;42.632;23.408;2023-03-22T06:00:53;94699.75;;;10.62;76.63
19761;BME280;10039;42.632;23.408;2023-03-22T06:03:20;94735.78;;;10.86;76.61
19761;BME280;10039;42.632;23.408;2023-03-22T06:05:46;94727.22;;;10.63;77.15
19761;BME280;10039;42.632;23.408;2023-03-22T06:08:15;94749.56;;;10.85;77.21
19761;BME280;10039;42.632;23.408;2023-03-22T06:10:41;94756.41;;;10.86;76.92
19761;BME280;10039;42.632;23.408;2023-03-22T06:13:07;94748.81;;;10.84;76.70
19761;BME280;10039;42.632;23.408;2023-03-22T06:15:32;94740.81;;;10.68;76.91
19761;BME280;10039;42.632;23.408;2023-03-22T06:17:58;94755.25;;;10.87;76.81
19761;BME280;10039;42.632;23.408;2023-03-22T06:20:24;94748.06;;;10.84;76.95
19761;BME280;10039;42.632;23.408;2023-03-22T06:22:50;94720.88;;;10.73;76.94
19761;BME280;10039;42.632;23.408;2023-03-22T06:25:16;94742.22;;;10.73;77.07
19761;BME280;10039;42.632;23.408;2023-03-22T06:27:41;94739.47;;;10.76;77.37
19761;BME280;10039;42.632;23.408;2023-03-22T06:30:07;94724.47;;;10.66;77.92
19761;BME280;10039;42.632;23.408;2023-03-22T06:32:33;94747.50;;;10.76;77.46
19761;BME280;10039;42.632;23.408;2023-03-22T06:34:59;94752.41;;;10.78;77.87
19761;BME280;10039;42.632;23.408;2023-03-22T06:37:25;94730.88;;;10.69;76.86
19761;BME280;10039;42.632;23.408;2023-03-22T06:39:51;94755.66;;;10.85;77.38
19761;BME280;10039;42.632;23.408;2023-03-22T06:42:19;94745.06;;;10.82;76.71
19761;BME280;10039;42.632;23.408;2023-03-22T06:44:45;94718.88;;;10.61;77.90
19761;BME280;10039;42.632;23.408;2023-03-22T06:47:11;94724.22;;;10.61;77.08
19761;BME280;10039;42.632;23.408;2023-03-22T06:49:38;94769.59;;;10.93;78.09
19761;BME280;10039;42.632;23.408;2023-03-22T06:52:04;94730.53;;;10.83;77.46
19761;BME280;10039;42.632;23.408;2023-03-22T06:54:30;94755.25;;;10.87;77.91
19761;BME280;10039;42.632;23.408;2023-03-22T06:56:56;94766.91;;;11.09;76.65
19761;BME280;10039;42.632;23.408;2023-03-22T06:59:21;94771.84;;;11.10;76.54
19761;BME280;10039;42.632;23.408;2023-03-22T07:01:47;94760.97;;;11.17;76.12
19761;BME280;10039;42.632;23.408;2023-03-22T07:04:13;94759.72;;;11.06;76.36
19761;BME280;10039;42.632;23.408;2023-03-22T07:06:39;94767.59;;;11.13;76.98
19761;BME280;10039;42.632;23.408;2023-03-22T07:09:04;94774.59;;;11.22;77.15
19761;BME280;10039;42.632;23.408;2023-03-22T07:11:30;94787.44;;;11.27;76.77
19761;BME280;10039;42.632;23.408;2023-03-22T07:13:56;94762.06;;;11.19;76.12
19761;BME280;10039;42.632;23.408;2023-03-22T07:16:22;94777.16;;;11.26;75.59
19761;BME280;10039;42.632;23.408;2023-03-22T07:18:48;94793.94;;;11.42;75.01
19761;BME280;10039;42.632;23.408;2023-03-22T07:21:14;94774.44;;;11.29;74.96
19761;BME280;10039;42.632;23.408;2023-03-22T07:23:40;94758.72;;;11.15;75.28
19761;BME280;10039;42.632;23.408;2023-03-22T07:26:06;94796.69;;;11.39;74.81
19761;BME280;10039;42.632;23.408;2023-03-22T07:28:32;94771.56;;;11.36;74.87
19761;BME280;10039;42.632;23.408;2023-03-22T07:31:07;94778.66;;;11.43;74.43
19761;BME280;10039;42.632;23.408;2023-03-22T07:33:39;94801.88;;;11.62;74.26
19761;BME280;10039;42.632;23.408;2023-03-22T07:36:06;94788.19;;;11.44;74.19
19761;BME280;10039;42.632;23.408;2023-03-22T07:38:32;94793.09;;;11.45;73.56
19761;BME280;10039;42.632;23.408;2023-03-22T07:40:58;94788.41;;;11.33;73.54
19761;BME280;10039;42.632;23.408;2023-03-22T07:43:24;94771.66;;;11.33;73.82
19761;BME280;10039;42.632;23.408;2023-03-22T07:45:50;94791.59;;;11.44;73.88
19761;BME280;10039;42.632;23.408;2023-03-22T07:48:17;94799.84;;;11.50;73.69
19761;BME280;10039;42.632;23.408;2023-03-22T07:50:44;94817.81;;;11.33;75.77
19761;BME280;10039;42.632;23.408;2023-03-22T07:53:10;94804.31;;;11.24;75.26
19761;BME280;10039;42.632;23.408;2023-03-22T07:55:36;94794.28;;;11.13;76.09
19761;BME280;10039;42.632;23.408;2023-03-22T07:58:03;94821.75;;;11.29;75.64
19761;BME280;10039;42.632;23.408;2023-03-22T08:00:29;94776.59;;;11.03;75.52
19761;BME280;10039;42.632;23.408;2023-03-22T08:02:55;94817.34;;;11.22;75.98
19761;BME280;10039;42.632;23.408;2023-03-22T08:05:21;94782.59;;;10.91;76.32
19761;BME280;10039;42.632;23.408;2023-03-22T08:07:47;94802.47;;;11.06;76.58
19761;BME280;10039;42.632;23.408;2023-03-22T08:10:13;94791.19;;;10.98;76.52
19761;BME280;10039;42.632;23.408;2023-03-22T08:12:40;94821.34;;;11.14;77.00
19761;BME280;10039;42.632;23.408;2023-03-22T08:15:06;94793.13;;;10.98;76.44
19761;BME280;10039;42.632;23.408;2023-03-22T08:17:32;94790.28;;;11.05;76.51
19761;BME280;10039;42.632;23.408;2023-03-22T08:19:58;94780.59;;;11.11;76.15
19761;BME280;10039;42.632;23.408;2023-03-22T08:22:24;94791.84;;;11.18;75.71
19761;BME280;10039;42.632;23.408;2023-03-22T08:24:53;94825.41;;;11.35;75.42
19761;BME280;10039;42.632;23.408;2023-03-22T08:27:19;94778.28;;;10.97;76.48
19761;BME280;10039;42.632;23.408;2023-03-22T08:29:45;94827.44;;;11.15;77.55
19761;BME280;10039;42.632;23.408;2023-03-22T08:32:13;94831.69;;;11.28;77.12
19761;BME280;10039;42.632;23.408;2023-03-22T08:34:39;94824.84;;;11.27;76.38
19761;BME280;10039;42.632;23.408;2023-03-22T08:37:06;94812.66;;;11.26;75.70
19761;BME280;10039;42.632;23.408;2023-03-22T08:39:32;94803.28;;;11.03;76.78
19761;BME280;10039;42.632;23.408;2023-03-22T08:41:58;94823.47;;;11.04;77.41
19761;BME280;10039;42.632;23.408;2023-03-22T08:44:25;94832.59;;;11.22;76.81
19761;BME280;10039;42.632;23.408;2023-03-22T08:46:51;94826.50;;;11.21;76.37
19761;BME280;10039;42.632;23.408;2023-03-22T08:49:16;94805.81;;;11.10;75.85
19761;BME280;10039;42.632;23.408;2023-03-22T08:51:42;94817.41;;;11.19;76.21
19761;BME280;10039;42.632;23.408;2023-03-22T08:54:08;94817.22;;;11.26;76.36
19761;BME280;10039;42.632;23.408;2023-03-22T08:56:34;94817.50;;;11.15;75.94
19761;BME280;10039;42.632;23.408;2023-03-22T08:59:06;94830.94;;;11.28;76.42
19761;BME280;10039;42.632;23.408;2023-03-22T09:01:33;94840.44;;;11.45;75.61
19761;BME280;10039;42.632;23.408;2023-03-22T09:04:00;94823.16;;;11.33;75.87
19761;BME280;10039;42.632;23.408;2023-03-22T09:06:27;94831.00;;;11.40;75.60
19761;BME280;10039;42.632;23.408;2023-03-22T09:08:53;94839.69;;;11.44;76.04
19761;BME280;10039;42.632;23.408;2023-03-22T09:11:19;94826.66;;;11.46;76.23
19761;BME280;10039;42.632;23.408;2023-03-22T09:13:46;94807.94;;;11.46;74.84
19761;BME280;10039;42.632;23.408;2023-03-22T09:16:12;94822.25;;;11.56;75.39
19761;BME280;10039;42.632;23.408;2023-03-22T09:18:38;94823.00;;;11.56;75.36
19761;BME280;10039;42.632;23.408;2023-03-22T09:21:05;94818.13;;;11.51;75.73
19761;BME280;10039;42.632;23.408;2023-03-22T09:23:32;94826.91;;;11.68;74.86
19761;BME280;10039;42.632;23.408;2023-03-22T09:26:00;94825.31;;;11.70;75.18
19761;BME280;10039;42.632;23.408;2023-03-22T09:28:27;94834.66;;;11.78;74.52
19761;BME280;10039;42.632;23.408;2023-03-22T09:30:53;94856.03;;;11.94;73.98
19761;BME280;10039;42.632;23.408;2023-03-22T09:33:19;94809.28;;;11.70;74.41
19761;BME280;10039;42.632;23.408;2023-03-22T09:35:45;94825.47;;;11.79;74.26
19761;BME280;10039;42.632;23.408;2023-03-22T09:38:11;94832.00;;;11.78;73.93
19761;BME280;10039;42.632;23.408;2023-03-22T09:41:02;94847.59;;;11.80;74.20
19761;BME280;10039;42.632;23.408;2023-03-22T09:43:35;94825.19;;;11.61;74.39
19761;BME280;10039;42.632;23.408;2023-03-22T09:46:04;94839.44;;;11.71;74.37
19761;BME280;10039;42.632;23.408;2023-03-22T09:48:34;94838.53;;;11.61;74.05
19761;BME280;10039;42.632;23.408;2023-03-22T09:51:02;94822.91;;;11.60;74.26
19761;BME280;10039;42.632;23.408;2023-03-22T09:53:29;94844.19;;;11.79;74.46
19761;BME280;10039;42.632;23.408;2023-03-22T09:56:12;94841.28;;;11.74;74.17
19761;BME280;10039;42.632;23.408;2023-03-22T10:01:55;94810.53;;;11.50;73.69
19761;BME280;10039;42.632;23.408;2023-03-22T10:04:46;94846.13;;;11.79;74.65
19761;BME280;10039;42.632;23.408;2023-03-22T10:07:48;94858.81;;;11.75;74.70
19761;BME280;10039;42.632;23.408;2023-03-22T10:10:18;94854.38;;;11.68;74.32
19761;BME280;10039;42.632;23.408;2023-03-22T10:12:52;94812.72;;;11.39;74.20
19761;BME280;10039;42.632;23.408;2023-03-22T10:15:35;94868.19;;;11.67;74.69
19761;BME280;10039;42.632;23.408;2023-03-22T10:18:05;94875.78;;;11.68;74.39
19761;BME280;10039;42.632;23.408;2023-03-22T10:23:05;94848.56;;;11.57;74.09
19761;BME280;10039;42.632;23.408;2023-03-22T10:25:36;94837.88;;;11.57;73.39
19761;BME280;10039;42.632;23.408;2023-03-22T10:28:13;94875.09;;;11.64;73.26
19761;BME280;10039;42.632;23.408;2023-03-22T10:30:40;94862.41;;;11.52;73.24
19761;BME280;10039;42.632;23.408;2023-03-22T10:33:13;94837.50;;;11.39;73.40
19761;BME280;10039;42.632;23.408;2023-03-22T10:35:42;94861.94;;;11.57;73.79
19761;BME280;10039;42.632;23.408;2023-03-22T10:38:17;94837.50;;;11.39;74.12
19761;BME280;10039;42.632;23.408;2023-03-22T10:40:45;94865.78;;;11.56;74.47
19761;BME280;10039;42.632;23.408;2023-03-22T10:43:23;94846.88;;;11.47;74.46
19761;BME280;10039;42.632;23.408;2023-03-22T10:45:52;94865.44;;;11.54;74.36
19761;BME280;10039;42.632;23.408;2023-03-22T10:48:37;94838.84;;;11.47;74.58
19761;BME280;10039;42.632;23.408;2023-03-22T10:51:05;94840.34;;;11.48;74.01
19761;BME280;10039;42.632;23.408;2023-03-22T10:53:42;94864.91;;;11.75;74.72
19761;BME280;10039;42.632;23.408;2023-03-22T10:56:17;94861.22;;;11.69;74.91
19761;BME280;10039;42.632;23.408;2023-03-22T10:58:45;94862.41;;;11.68;74.48
19761;BME280;10039;42.632;23.408;2023-03-22T11:01:27;94832.88;;;11.59;74.29
19761;BME280;10039;42.632;23.408;2023-03-22T11:03:59;94839.44;;;11.55;73.48
19761;BME280;10039;42.632;23.408;2023-03-22T11:06:31;94862.00;;;11.70;73.37
19761;BME280;10039;42.632;23.408;2023-03-22T11:09:02;94831.69;;;11.60;72.98
19761;BME280;10039;42.632;23.408;2023-03-22T11:11:49;94848.03;;;11.78;73.10
19761;BME280;10039;42.632;23.408;2023-03-22T11:14:21;94849.44;;;11.83;73.39
19761;BME280;10039;42.632;23.408;2023-03-22T11:16:56;94826.34;;;11.60;72.67
19761;BME280;10039;42.632;23.408;2023-03-22T11:19:31;94806.13;;;11.43;72.81
19761;BME280;10039;42.632;23.408;2023-03-22T11:21:58;94825.69;;;11.56;72.30
19761;BME280;10039;42.632;23.408;2023-03-22T11:24:30;94832.19;;;11.55;72.67
19761;BME280;10039;42.632;23.408;2023-03-22T11:27:23;94846.88;;;11.63;73.50
19761;BME280;10039;42.632;23.408;2023-03-22T11:32:41;94853.91;;;11.57;74.08
19761;BME280;10039;42.632;23.408;2023-03-22T11:35:16;94845.91;;;11.57;74.46
19761;BME280;10039;42.632;23.408;2023-03-22T11:37:47;94821.09;;;11.41;73.78
19761;BME280;10039;42.632;23.408;2023-03-22T11:40:16;94853.91;;;11.57;72.61
19761;BME280;10039;42.632;23.408;2023-03-22T11:42:42;94850.28;;;11.48;73.16
19761;BME280;10039;42.632;23.408;2023-03-22T11:45:29;94822.59;;;11.42;73.05
19761;BME280;10039;42.632;23.408;2023-03-22T11:48:07;94809.47;;;11.31;73.06
19761;BME280;10039;42.632;23.408;2023-03-22T11:50:36;94839.44;;;11.55;72.73
19761;BME280;10039;42.632;23.408;2023-03-22T11:53:06;94837.69;;;11.64;73.45
19761;BME280;10039;42.632;23.408;2023-03-22T11:55:34;94817.66;;;11.56;73.32
19761;BME280;10039;42.632;23.408;2023-03-22T11:58:04;94823.56;;;11.64;73.21
19761;BME280;10039;42.632;23.408;2023-03-22T12:00:33;94843.75;;;11.81;73.33
19761;BME280;10039;42.632;23.408;2023-03-22T12:03:05;94809.38;;;11.67;73.46
19761;BME280;10039;42.632;23.408;2023-03-22T12:05:38;94828.16;;;11.63;73.34
19761;BME280;10039;42.632;23.408;2023-03-22T12:10:42;94847.28;;;11.78;72.59
19761;BME280;10039;42.632;23.408;2023-03-22T12:13:14;94845.84;;;11.89;72.27
19761;BME280;10039;42.632;23.408;2023-03-22T12:15:47;94842.72;;;12.07;72.06
19761;BME280;10039;42.632;23.408;2023-03-22T12:18:25;94839.19;;;12.10;72.36
19761;BME280;10039;42.632;23.408;2023-03-22T12:20:58;94845.81;;;12.18;72.15
19761;BME280;10039;42.632;23.408;2023-03-22T12:23:30;94824.00;;;12.19;71.80
19761;BME280;10039;42.632;23.408;2023-03-22T12:28:35;94831.53;;;12.24;71.86
19761;BME280;10039;42.632;23.408;2023-03-22T12:31:05;94829.78;;;12.18;71.55
19761;BME280;10039;42.632;23.408;2023-03-22T12:33:44;94800.81;;;12.00;71.74
19761;BME280;10039;42.632;23.408;2023-03-22T12:36:16;94828.38;;;12.13;71.61
19761;BME280;10039;42.632;23.408;2023-03-22T12:38:57;94819.84;;;12.18;71.19
19761;BME280;10039;42.632;23.408;2023-03-22T12:41:34;94810.31;;;12.17;71.36
19761;BME280;10039;42.632;23.408;2023-03-22T12:44:12;94831.31;;;12.31;71.14
19761;BME280;10039;42.632;23.408;2023-03-22T12:47:23;94805.81;;;12.14;71.02
19761;BME280;10039;42.632;23.408;2023-03-22T12:50:19;94830.06;;;12.35;72.01
19761;BME280;10039;42.632;23.408;2023-03-22T12:52:52;94794.41;;;12.26;71.77
19761;BME280;10039;42.632;23.408;2023-03-22T12:55:34;94827.63;;;12.53;71.45
19761;BME280;10039;42.632;23.408;2023-03-22T12:58:04;94805.72;;;12.30;71.85
19761;BME280;10039;42.632;23.408;2023-03-22T13:00:51;94820.88;;;12.49;72.51
19761;BME280;10039;42.632;23.408;2023-03-22T13:03:23;94820.56;;;12.59;71.71
19761;BME280;10039;42.632;23.408;2023-03-22T13:09:16;94788.31;;;12.63;70.24
19761;BME280;10039;42.632;23.408;2023-03-22T13:11:45;94811.38;;;12.73;70.48
19761;BME280;10039;42.632;23.408;2023-03-22T13:17:38;94815.13;;;12.88;69.09
19761;BME280;10039;42.632;23.408;2023-03-22T13:27:55;94801.09;;;13.09;68.56
19761;BME280;10039;42.632;23.408;2023-03-22T13:35:41;94806.31;;;13.25;68.47
19761;BME280;10039;42.632;23.408;2023-03-22T13:38:21;94786.84;;;13.12;68.21
19761;BME280;10039;42.632;23.408;2023-03-22T13:43:33;94806.56;;;13.18;68.08
19761;BME280;10039;42.632;23.408;2023-03-22T14:07:06;94815.47;;;13.02;70.92
19761;BME280;10039;42.632;23.408;2023-03-22T14:09:38;94791.66;;;12.92;70.93
19761;BME280;10039;42.632;23.408;2023-03-22T14:12:21;94820.19;;;13.11;71.28
19761;BME280;10039;42.632;23.408;2023-03-22T14:14:56;94810.97;;;13.12;70.04
19761;BME280;10039;42.632;23.408;2023-03-22T14:17:41;94815.53;;;13.24;70.35
19761;BME280;10039;42.632;23.408;2023-03-22T14:20:13;94795.22;;;13.14;70.24
19761;BME280;10039;42.632;23.408;2023-03-22T14:22:46;94810.00;;;13.18;71.46
19761;BME280;10039;42.632;23.408;2023-03-22T14:25:17;94812.56;;;13.22;71.16
19761;BME280;10039;42.632;23.408;2023-03-22T14:27:44;94787.19;;;13.01;69.30